Time,TemperatureF,DewpointF,PressureIn,WindDirection,WindDirectionDegrees,WindSpeedMPH,WindSpeedGustMPH,Humidity,HourlyPrecipIn,Conditions,Clouds,dailyrainin,SoftwareType,DateUTC
2013-07-20 00:02:00,72.0,72.0,29.87,South,184,0.0,14.0,99,0.00,,,0.00,,2013-07-20 04:02:00,
2013-07-20 04:44:00,70.0,70.0,29.83,SW,232,0.0,14.0,99,0.00,,,0.00,,2013-07-20 08:44:00,
2013-07-20 06:42:00,68.0,68.0,29.82,North,0,0.0,10.0,99,0.00,,,0.00,,2013-07-20 10:42:00,
2013-07-20 06:52:00,68.0,68.0,29.83,North,0,0.0,10.0,99,0.00,,,0.00,,2013-07-20 10:52:00,
2013-07-20 07:32:00,69.0,69.0,29.83,WNW,298,0.0,10.0,99,0.00,,,0.00,,2013-07-20 11:32:00,
2013-07-20 07:43:00,69.0,69.0,29.83,WNW,298,0.0,10.0,99,0.00,,,0.00,,2013-07-20 11:43:00,
2013-07-20 07:52:00,69.0,69.0,29.84,SSE,158,0.0,10.0,99,0.00,,,0.00,,2013-07-20 11:52:00,
2013-07-20 08:01:00,69.0,69.0,29.84,SSE,158,0.0,10.0,99,0.00,,,0.00,,2013-07-20 12:01:00,
2013-07-20 08:11:00,69.0,69.0,29.84,SSE,158,0.0,10.0,99,0.00,,,0.00,,2013-07-20 12:11:00,
2013-07-20 08:52:00,74.0,74.0,29.85,WSW,250,0.0,10.0,99,0.00,,,0.00,,2013-07-20 12:52:00,
2013-07-20 09:02:00,74.0,74.0,29.85,WSW,250,0.0,10.0,99,0.00,,,0.00,,2013-07-20 13:02:00,
2013-07-20 09:11:00,74.0,74.0,29.85,WSW,250,0.0,10.0,99,0.00,,,0.00,,2013-07-20 13:11:00,
2013-07-20 09:22:00,74.0,74.0,29.84,NW,326,0.0,10.0,99,0.00,,,0.00,,2013-07-20 13:22:00,
2013-07-20 09:43:00,74.0,74.0,29.84,NW,326,0.0,10.0,99,0.00,,,0.00,,2013-07-20 13:43:00,
2013-07-20 09:53:00,74.0,74.0,29.84,NW,326,0.0,10.0,99,0.00,,,0.00,,2013-07-20 13:53:00,
2013-07-20 10:02:00,74.0,74.0,29.84,NW,326,0.0,10.0,99,0.00,,,0.00,,2013-07-20 14:02:00,
2013-07-20 10:22:00,77.0,75.0,29.82,East,88,2.0,10.0,94,0.00,,,0.00,,2013-07-20 14:22:00,
2013-07-20 10:32:00,77.0,75.0,29.82,East,88,2.0,10.0,94,0.00,,,0.00,,2013-07-20 14:32:00,
2013-07-20 10:43:00,77.0,75.0,29.82,East,88,2.0,10.0,94,0.00,,,0.00,,2013-07-20 14:43:00,
2013-07-20 10:53:00,77.0,74.0,29.83,NW,310,0.0,10.0,89,0.00,,,0.00,,2013-07-20 14:53:00,
2013-07-20 11:01:00,77.0,74.0,29.83,NW,310,0.0,10.0,89,0.00,,,0.00,,2013-07-20 15:01:00,
2013-07-20 11:11:00,77.0,74.0,29.83,NW,310,0.0,10.0,89,0.00,,,0.00,,2013-07-20 15:11:00,
2013-07-20 11:23:00,78.0,74.0,29.83,WSW,251,2.0,12.0,88,0.00,,,0.00,,2013-07-20 15:23:00,
2013-07-20 11:33:00,78.0,74.0,29.83,WSW,251,2.0,12.0,88,0.00,,,0.00,,2013-07-20 15:33:00,
2013-07-20 11:44:00,78.0,74.0,29.83,WSW,251,2.0,12.0,88,0.00,,,0.00,,2013-07-20 15:44:00,
2013-07-20 11:53:00,80.0,74.0,29.82,South,175,2.0,12.0,82,0.00,,,0.00,,2013-07-20 15:53:00,
2013-07-20 12:01:00,80.0,74.0,29.82,South,175,2.0,12.0,82,0.00,,,0.00,,2013-07-20 16:01:00,
2013-07-20 12:11:00,80.0,74.0,29.82,South,175,2.0,12.0,82,0.00,,,0.00,,2013-07-20 16:11:00,
2013-07-20 12:22:00,80.0,74.0,29.81,ESE,120,0.0,12.0,82,0.00,,,0.00,,2013-07-20 16:22:00,
2013-07-20 12:32:00,80.0,74.0,29.81,ESE,120,0.0,12.0,82,0.00,,,0.00,,2013-07-20 16:32:00,
2013-07-20 12:44:00,80.0,74.0,29.81,ESE,120,0.0,12.0,82,0.00,,,0.00,,2013-07-20 16:44:00,
2013-07-20 12:52:00,80.0,72.0,29.80,ENE,60,1.0,16.0,78,0.00,,,0.00,,2013-07-20 16:52:00,
2013-07-20 13:02:00,80.0,72.0,29.80,ENE,60,1.0,16.0,78,0.00,,,0.00,,2013-07-20 17:02:00,
2013-07-20 13:11:00,80.0,72.0,29.80,ENE,60,1.0,16.0,78,0.00,,,0.00,,2013-07-20 17:11:00,
2013-07-20 13:22:00,80.0,71.0,29.79,South,183,1.0,16.0,75,0.00,,,0.00,,2013-07-20 17:22:00,
2013-07-20 13:32:00,80.0,71.0,29.79,South,183,1.0,16.0,75,0.00,,,0.00,,2013-07-20 17:32:00,
2013-07-20 13:43:00,80.0,71.0,29.79,South,183,1.0,16.0,75,0.00,,,0.00,,2013-07-20 17:43:00,
2013-07-20 13:53:00,81.0,73.0,29.79,NNW,338,3.0,16.0,77,0.00,,,0.00,,2013-07-20 17:53:00,
2013-07-20 14:01:00,81.0,73.0,29.79,NNW,338,3.0,16.0,77,0.00,,,0.00,,2013-07-20 18:01:00,
2013-07-20 14:12:00,81.0,73.0,29.79,NNW,338,3.0,16.0,77,0.00,,,0.00,,2013-07-20 18:12:00,
2013-07-20 14:25:00,82.0,74.0,29.78,SSW,194,4.0,16.0,77,0.00,,,0.00,,2013-07-20 18:25:00,
2013-07-20 14:36:00,82.0,74.0,29.78,SSW,194,4.0,16.0,77,0.00,,,0.00,,2013-07-20 18:36:00,
2013-07-20 14:47:00,82.0,74.0,29.78,SSW,194,4.0,16.0,77,0.00,,,0.00,,2013-07-20 18:47:00,
2013-07-20 14:59:00,81.0,74.0,29.78,WSW,253,1.0,16.0,80,0.00,,,0.00,,2013-07-20 18:59:00,
2013-07-20 15:06:00,81.0,74.0,29.78,WSW,253,1.0,16.0,80,0.00,,,0.00,,2013-07-20 19:06:00,
2013-07-20 15:16:00,81.0,74.0,29.78,WSW,253,1.0,16.0,80,0.00,,,0.00,,2013-07-20 19:16:00,
2013-07-20 15:26:00,79.0,71.0,29.77,South,185,0.0,16.0,76,0.00,,,0.00,,2013-07-20 19:26:00,
2013-07-20 15:35:00,79.0,71.0,29.77,South,185,0.0,16.0,76,0.00,,,0.00,,2013-07-20 19:35:00,
2013-07-20 15:44:00,79.0,71.0,29.77,South,185,0.0,16.0,76,0.00,,,0.00,,2013-07-20 19:44:00,
2013-07-20 15:57:00,79.0,73.0,29.77,South,171,2.0,16.0,81,0.00,,,0.00,,2013-07-20 19:57:00,
2013-07-20 16:06:00,79.0,73.0,29.77,South,171,2.0,16.0,81,0.00,,,0.00,,2013-07-20 20:06:00,
2013-07-20 16:16:00,79.0,73.0,29.77,South,171,2.0,16.0,81,0.00,,,0.00,,2013-07-20 20:16:00,
2013-07-20 16:24:00,79.0,73.0,29.76,SW,214,4.0,16.0,83,0.00,,,0.00,,2013-07-20 20:24:00,
2013-07-20 16:34:00,79.0,73.0,29.76,SW,214,4.0,16.0,83,0.00,,,0.00,,2013-07-20 20:34:00,
2013-07-20 16:47:00,79.0,73.0,29.76,SW,214,4.0,16.0,83,0.00,,,0.00,,2013-07-20 20:47:00,
2013-07-20 16:58:00,79.0,74.0,29.77,West,273,2.0,16.0,86,0.00,,,0.00,,2013-07-20 20:58:00,
2013-07-20 17:15:00,79.0,74.0,29.77,West,273,2.0,16.0,86,0.00,,,0.00,,2013-07-20 21:15:00,
2013-07-20 17:28:00,78.0,74.0,29.79,SE,143,3.0,16.0,88,0.00,,,0.00,,2013-07-20 21:28:00,
2013-07-20 17:35:00,78.0,74.0,29.79,SE,143,3.0,16.0,88,0.00,,,0.00,,2013-07-20 21:35:00,
2013-07-20 17:57:00,82.0,80.0,29.79,NW,320,0.0,16.0,93,0.00,,,0.00,,2013-07-20 21:57:00,
2013-07-20 18:07:00,82.0,80.0,29.79,NW,320,0.0,16.0,93,0.00,,,0.00,,2013-07-20 22:07:00,
2013-07-20 18:50:00,83.0,80.0,29.79,South,179,0.0,16.0,91,0.00,,,0.00,,2013-07-20 22:50:00,
2013-07-20 18:57:00,83.0,79.0,29.79,West,279,1.0,16.0,87,0.00,,,0.00,,2013-07-20 22:57:00,
2013-07-20 19:06:00,83.0,79.0,29.79,West,279,1.0,16.0,87,0.00,,,0.00,,2013-07-20 23:06:00,
2013-07-20 19:17:00,83.0,79.0,29.79,West,279,1.0,16.0,87,0.00,,,0.00,,2013-07-20 23:17:00,
2013-07-20 19:29:00,82.0,77.0,29.80,WNW,287,0.0,16.0,84,0.00,,,0.00,,2013-07-20 23:29:00,
2013-07-20 19:37:00,82.0,77.0,29.80,WNW,287,0.0,16.0,84,0.00,,,0.00,,2013-07-20 23:37:00,
2013-07-20 19:47:00,82.0,77.0,29.80,WNW,287,0.0,16.0,84,0.00,,,0.00,,2013-07-20 23:47:00,
2013-07-20 20:18:00,80.0,76.0,29.81,South,181,0.0,16.0,87,0.00,,,0.00,,2013-07-21 00:18:00,
2013-07-20 20:24:00,79.0,76.0,29.82,SE,143,0.0,16.0,91,0.00,,,0.00,,2013-07-21 00:24:00,
2013-07-20 20:45:00,79.0,76.0,29.82,SE,143,0.0,16.0,91,0.00,,,0.00,,2013-07-21 00:45:00,
2013-07-20 20:56:00,77.0,74.0,29.83,SSW,196,0.0,16.0,92,0.00,,,0.00,,2013-07-21 00:56:00,
2013-07-20 21:06:00,77.0,74.0,29.83,SSW,196,0.0,16.0,92,0.00,,,0.00,,2013-07-21 01:06:00,
2013-07-20 21:13:00,77.0,74.0,29.83,SSW,196,0.0,16.0,92,0.00,,,0.00,,2013-07-21 01:13:00,
2013-07-20 21:36:00,73.0,71.0,29.84,SSW,196,0.0,16.0,95,0.00,,,0.00,,2013-07-21 01:36:00,
2013-07-20 21:49:00,-999.0,-99.9,29.84,SSW,196,0.0,16.0,-999,-99.99,,,-99.99,,2013-07-21 01:49:00,
2013-07-20 21:59:00,72.0,71.0,29.86,NW,312,0.0,16.0,98,0.00,,,0.00,,2013-07-21 01:59:00,
2013-07-20 22:06:00,72.0,71.0,29.86,NW,312,0.0,16.0,98,0.00,,,0.00,,2013-07-21 02:06:00,
2013-07-20 22:19:00,72.0,71.0,29.86,NW,312,0.0,16.0,98,0.00,,,0.00,,2013-07-21 02:19:00,
2013-07-20 22:28:00,73.0,73.0,29.87,NNW,330,0.0,16.0,99,0.00,,,0.00,,2013-07-21 02:28:00,
2013-07-20 22:36:00,73.0,73.0,29.87,NNW,330,0.0,16.0,99,0.00,,,0.00,,2013-07-21 02:36:00,
2013-07-20 22:47:00,73.0,73.0,29.87,NNW,330,0.0,16.0,99,0.00,,,0.00,,2013-07-21 02:47:00,
2013-07-20 22:58:00,72.0,72.0,29.87,NNW,330,0.0,16.0,99,0.00,,,0.00,,2013-07-21 02:58:00,
2013-07-20 23:05:00,72.0,72.0,29.87,NNW,330,0.0,16.0,99,0.00,,,0.00,,2013-07-21 03:05:00,
2013-07-20 23:15:00,72.0,72.0,29.87,NNW,330,0.0,16.0,99,0.00,,,0.00,,2013-07-21 03:15:00,
2013-07-20 23:26:00,71.0,71.0,29.88,SW,233,0.0,16.0,99,0.00,,,0.00,,2013-07-21 03:26:00,
2013-07-20 23:36:00,71.0,71.0,29.88,SW,233,0.0,16.0,99,0.00,,,0.00,,2013-07-21 03:36:00,
2013-07-20 23:47:00,71.0,71.0,29.88,SW,233,0.0,16.0,99,0.00,,,0.00,,2013-07-21 03:47:00,